sensor_id;sensor_type;location;lat;lon;timestamp;temperature;humidity
51021;DHT22;38907;45.562;8.856;2023-12-29T00:01:36;8.50;99.90
51021;DHT22;38907;45.562;8.856;2023-12-29T00:06:38;8.60;99.90
51021;DHT22;38907;45.562;8.856;2023-12-29T00:11:41;8.50;99.90
51021;DHT22;38907;45.562;8.856;2023-12-29T00:16:43;8.60;99.90
51021;DHT22;38907;45.562;8.856;2023-12-29T00:21:45;8.60;99.90
51021;DHT22;38907;45.562;8.856;2023-12-29T00:26:48;8.70;99.90
51021;DHT22;38907;45.562;8.856;2023-12-29T00:31:50;8.60;99.90
51021;DHT22;38907;45.562;8.856;2023-12-29T00:36:52;8.60;99.90
51021;DHT22;38907;45.562;8.856;2023-12-29T00:41:56;8.50;99.90
51021;DHT22;38907;45.562;8.856;2023-12-29T00:46:57;8.50;99.90
51021;DHT22;38907;45.562;8.856;2023-12-29T00:51:59;8.60;99.90
51021;DHT22;38907;45.562;8.856;2023-12-29T00:57:04;8.30;99.90
51021;DHT22;38907;45.562;8.856;2023-12-29T01:02:06;8.40;99.90
51021;DHT22;38907;45.562;8.856;2023-12-29T01:07:08;8.60;99.90
51021;DHT22;38907;45.562;8.856;2023-12-29T01:12:11;8.40;99.90
51021;DHT22;38907;45.562;8.856;2023-12-29T01:17:15;8.50;99.90
51021;DHT22;38907;45.562;8.856;2023-12-29T01:22:17;8.60;99.90
51021;DHT22;38907;45.562;8.856;2023-12-29T01:27:20;8.40;99.90
51021;DHT22;38907;45.562;8.856;2023-12-29T01:32:22;8.50;99.90
51021;DHT22;38907;45.562;8.856;2023-12-29T01:37:24;8.40;99.90
51021;DHT22;38907;45.562;8.856;2023-12-29T01:42:27;8.50;99.90
51021;DHT22;38907;45.562;8.856;2023-12-29T01:47:29;8.50;99.90
51021;DHT22;38907;45.562;8.856;2023-12-29T01:52:31;8.60;99.90
51021;DHT22;38907;45.562;8.856;2023-12-29T01:57:34;8.50;99.90
51021;DHT22;38907;45.562;8.856;2023-12-29T02:02:37;8.30;99.90
51021;DHT22;38907;45.562;8.856;2023-12-29T02:07:39;8.40;99.90
51021;DHT22;38907;45.562;8.856;2023-12-29T02:12:43;8.50;99.90
51021;DHT22;38907;45.562;8.856;2023-12-29T02:17:52;8.60;99.90
51021;DHT22;38907;45.562;8.856;2023-12-29T02:22:58;8.50;99.90
51021;DHT22;38907;45.562;8.856;2023-12-29T02:28:06;8.60;99.90
51021;DHT22;38907;45.562;8.856;2023-12-29T02:33:16;8.60;99.90
51021;DHT22;38907;45.562;8.856;2023-12-29T02:38:20;8.50;99.90
51021;DHT22;38907;45.562;8.856;2023-12-29T02:43:24;8.50;99.90
51021;DHT22;38907;45.562;8.856;2023-12-29T02:48:25;8.50;99.90
51021;DHT22;38907;45.562;8.856;2023-12-29T02:53:27;8.30;99.90
51021;DHT22;38907;45.562;8.856;2023-12-29T02:58:30;8.50;99.90
51021;DHT22;38907;45.562;8.856;2023-12-29T03:03:32;8.50;99.90
51021;DHT22;38907;45.562;8.856;2023-12-29T03:08:35;8.60;99.90
51021;DHT22;38907;45.562;8.856;2023-12-29T03:13:38;8.50;99.90
51021;DHT22;38907;45.562;8.856;2023-12-29T03:18:40;8.50;99.90
51021;DHT22;38907;45.562;8.856;2023-12-29T03:23:42;8.60;99.90
51021;DHT22;38907;45.562;8.856;2023-12-29T03:28:45;8.50;99.90
51021;DHT22;38907;45.562;8.856;2023-12-29T03:33:47;8.40;99.90
51021;DHT22;38907;45.562;8.856;2023-12-29T03:38:49;8.40;99.90
51021;DHT22;38907;45.562;8.856;2023-12-29T03:43:52;8.30;99.90
51021;DHT22;38907;45.562;8.856;2023-12-29T03:48:54;8.30;99.90
51021;DHT22;38907;45.562;8.856;2023-12-29T03:53:56;8.40;99.90
51021;DHT22;38907;45.562;8.856;2023-12-29T03:59:00;8.40;99.90
51021;DHT22;38907;45.562;8.856;2023-12-29T04:04:02;8.30;99.90
51021;DHT22;38907;45.562;8.856;2023-12-29T04:09:04;8.30;99.90
51021;DHT22;38907;45.562;8.856;2023-12-29T04:14:07;8.30;99.90
51021;DHT22;38907;45.562;8.856;2023-12-29T04:19:13;8.30;99.90
51021;DHT22;38907;45.562;8.856;2023-12-29T04:24:15;8.30;99.90
51021;DHT22;38907;45.562;8.856;2023-12-29T04:29:18;8.10;99.90
51021;DHT22;38907;45.562;8.856;2023-12-29T04:34:20;8.40;99.90
51021;DHT22;38907;45.562;8.856;2023-12-29T04:39:21;8.50;99.90
51021;DHT22;38907;45.562;8.856;2023-12-29T04:44:25;8.20;99.90
51021;DHT22;38907;45.562;8.856;2023-12-29T04:49:26;8.30;99.90
51021;DHT22;38907;45.562;8.856;2023-12-29T04:54:28;8.20;99.90
51021;DHT22;38907;45.562;8.856;2023-12-29T04:59:31;8.10;99.90
51021;DHT22;38907;45.562;8.856;2023-12-29T05:04:33;8.20;99.90
51021;DHT22;38907;45.562;8.856;2023-12-29T05:09:35;8.30;99.90
51021;DHT22;38907;45.562;8.856;2023-12-29T05:14:38;8.30;99.90
51021;DHT22;38907;45.562;8.856;2023-12-29T05:19:40;8.30;99.90
51021;DHT22;38907;45.562;8.856;2023-12-29T05:24:42;8.20;99.90
51021;DHT22;38907;45.562;8.856;2023-12-29T05:29:46;8.20;99.90
51021;DHT22;38907;45.562;8.856;2023-12-29T05:34:48;8.30;99.90
51021;DHT22;38907;45.562;8.856;2023-12-29T05:39:49;8.30;99.90
51021;DHT22;38907;45.562;8.856;2023-12-29T05:44:53;8.50;99.90
51021;DHT22;38907;45.562;8.856;2023-12-29T05:49:54;8.30;99.90
51021;DHT22;38907;45.562;8.856;2023-12-29T05:54:56;8.30;99.90
51021;DHT22;38907;45.562;8.856;2023-12-29T06:00:00;8.20;99.90
51021;DHT22;38907;45.562;8.856;2023-12-29T06:05:02;8.20;99.90
51021;DHT22;38907;45.562;8.856;2023-12-29T06:10:04;8.30;99.90
51021;DHT22;38907;45.562;8.856;2023-12-29T06:15:08;8.50;99.90
51021;DHT22;38907;45.562;8.856;2023-12-29T06:20:11;8.30;99.90
51021;DHT22;38907;45.562;8.856;2023-12-29T06:25:13;8.40;99.90
51021;DHT22;38907;45.562;8.856;2023-12-29T06:30:17;8.40;99.90
51021;DHT22;38907;45.562;8.856;2023-12-29T06:35:19;8.40;99.90
51021;DHT22;38907;45.562;8.856;2023-12-29T06:40:21;8.50;99.90
51021;DHT22;38907;45.562;8.856;2023-12-29T06:45:24;8.60;99.90
51021;DHT22;38907;45.562;8.856;2023-12-29T06:50:26;8.50;99.90
51021;DHT22;38907;45.562;8.856;2023-12-29T06:55:28;8.50;99.90
51021;DHT22;38907;45.562;8.856;2023-12-29T07:00:31;8.50;99.90
51021;DHT22;38907;45.562;8.856;2023-12-29T07:05:34;8.60;99.90
51021;DHT22;38907;45.562;8.856;2023-12-29T07:10:36;8.30;99.90
51021;DHT22;38907;45.562;8.856;2023-12-29T07:15:39;8.20;99.90
51021;DHT22;38907;45.562;8.856;2023-12-29T07:20:41;8.40;99.90
51021;DHT22;38907;45.562;8.856;2023-12-29T07:25:43;8.40;99.90
51021;DHT22;38907;45.562;8.856;2023-12-29T07:30:46;8.40;99.90
51021;DHT22;38907;45.562;8.856;2023-12-29T07:35:48;8.30;99.90
51021;DHT22;38907;45.562;8.856;2023-12-29T07:40:50;8.20;99.90
51021;DHT22;38907;45.562;8.856;2023-12-29T07:45:53;8.50;99.90
51021;DHT22;38907;45.562;8.856;2023-12-29T07:50:58;8.50;99.90
51021;DHT22;38907;45.562;8.856;2023-12-29T07:56:06;8.30;99.90
51021;DHT22;38907;45.562;8.856;2023-12-29T08:01:10;8.50;99.90
51021;DHT22;38907;45.562;8.856;2023-12-29T08:06:12;8.50;99.90
51021;DHT22;38907;45.562;8.856;2023-12-29T08:11:14;8.60;99.90
51021;DHT22;38907;45.562;8.856;2023-12-29T08:16:18;8.70;99.90
51021;DHT22;38907;45.562;8.856;2023-12-29T08:21:20;8.60;99.90
51021;DHT22;38907;45.562;8.856;2023-12-29T08:26:22;8.60;99.90
51021;DHT22;38907;45.562;8.856;2023-12-29T08:31:25;8.80;99.90
51021;DHT22;38907;45.562;8.856;2023-12-29T08:36:28;8.60;99.90
51021;DHT22;38907;45.562;8.856;2023-12-29T08:41:29;8.70;99.90
51021;DHT22;38907;45.562;8.856;2023-12-29T08:46:32;8.60;99.90
51021;DHT22;38907;45.562;8.856;2023-12-29T08:51:34;8.80;99.90
51021;DHT22;38907;45.562;8.856;2023-12-29T08:56:37;8.90;99.90
51021;DHT22;38907;45.562;8.856;2023-12-29T09:01:40;9.00;99.90
51021;DHT22;38907;45.562;8.856;2023-12-29T09:06:42;8.80;99.90
51021;DHT22;38907;45.562;8.856;2023-12-29T09:11:44;8.90;99.90
51021;DHT22;38907;45.562;8.856;2023-12-29T09:16:48;9.00;99.90
51021;DHT22;38907;45.562;8.856;2023-12-29T09:21:49;9.00;99.90
51021;DHT22;38907;45.562;8.856;2023-12-29T09:26:51;9.10;99.90
51021;DHT22;38907;45.562;8.856;2023-12-29T09:31:56;9.00;99.90
51021;DHT22;38907;45.562;8.856;2023-12-29T09:36:58;8.90;99.90
51021;DHT22;38907;45.562;8.856;2023-12-29T09:42:01;9.20;99.90
51021;DHT22;38907;45.562;8.856;2023-12-29T09:47:06;9.00;99.90
51021;DHT22;38907;45.562;8.856;2023-12-29T09:52:11;9.10;99.90
51021;DHT22;38907;45.562;8.856;2023-12-29T09:57:14;9.00;99.90
51021;DHT22;38907;45.562;8.856;2023-12-29T10:02:17;9.10;99.90
51021;DHT22;38907;45.562;8.856;2023-12-29T10:07:23;9.10;99.90
51021;DHT22;38907;45.562;8.856;2023-12-29T10:12:27;9.20;99.90
51021;DHT22;38907;45.562;8.856;2023-12-29T10:17:40;9.20;99.90
51021;DHT22;38907;45.562;8.856;2023-12-29T10:22:48;9.20;99.90
51021;DHT22;38907;45.562;8.856;2023-12-29T10:27:52;9.30;99.90
51021;DHT22;38907;45.562;8.856;2023-12-29T10:32:56;9.40;99.90
51021;DHT22;38907;45.562;8.856;2023-12-29T10:38:08;9.30;99.90
51021;DHT22;38907;45.562;8.856;2023-12-29T10:43:11;9.30;99.90
51021;DHT22;38907;45.562;8.856;2023-12-29T10:48:21;9.30;99.90
51021;DHT22;38907;45.562;8.856;2023-12-29T10:53:24;9.40;99.90
51021;DHT22;38907;45.562;8.856;2023-12-29T10:58:26;9.40;99.90
51021;DHT22;38907;45.562;8.856;2023-12-29T11:03:31;9.40;99.90
51021;DHT22;38907;45.562;8.856;2023-12-29T11:08:35;9.50;99.90
51021;DHT22;38907;45.562;8.856;2023-12-29T11:13:37;9.60;99.90
51021;DHT22;38907;45.562;8.856;2023-12-29T11:18:41;9.30;99.90
51021;DHT22;38907;45.562;8.856;2023-12-29T11:23:44;9.50;99.90
51021;DHT22;38907;45.562;8.856;2023-12-29T11:28:46;9.50;99.90
51021;DHT22;38907;45.562;8.856;2023-12-29T11:33:54;9.40;99.90
51021;DHT22;38907;45.562;8.856;2023-12-29T11:39:02;9.60;99.90
51021;DHT22;38907;45.562;8.856;2023-12-29T11:44:05;9.60;99.90
51021;DHT22;38907;45.562;8.856;2023-12-29T11:49:10;9.50;99.90
51021;DHT22;38907;45.562;8.856;2023-12-29T11:54:22;9.60;99.90
51021;DHT22;38907;45.562;8.856;2023-12-29T11:59:25;9.60;99.90
51021;DHT22;38907;45.562;8.856;2023-12-29T12:04:36;9.70;99.90
51021;DHT22;38907;45.562;8.856;2023-12-29T12:09:40;9.60;99.90
51021;DHT22;38907;45.562;8.856;2023-12-29T12:14:46;9.70;99.90
51021;DHT22;38907;45.562;8.856;2023-12-29T12:19:50;9.70;99.90
51021;DHT22;38907;45.562;8.856;2023-12-29T12:24:55;9.60;99.90
51021;DHT22;38907;45.562;8.856;2023-12-29T12:29:59;9.60;99.90
51021;DHT22;38907;45.562;8.856;2023-12-29T12:35:03;9.60;99.90
51021;DHT22;38907;45.562;8.856;2023-12-29T12:40:06;9.60;99.90
51021;DHT22;38907;45.562;8.856;2023-12-29T12:45:12;9.60;99.90
51021;DHT22;38907;45.562;8.856;2023-12-29T12:50:20;9.50;99.90
51021;DHT22;38907;45.562;8.856;2023-12-29T12:55:22;9.50;99.90
51021;DHT22;38907;45.562;8.856;2023-12-29T13:00:24;9.50;99.90
51021;DHT22;38907;45.562;8.856;2023-12-29T13:05:29;9.50;99.90
51021;DHT22;38907;45.562;8.856;2023-12-29T13:10:31;9.60;99.90
51021;DHT22;38907;45.562;8.856;2023-12-29T13:15:33;9.60;99.90
51021;DHT22;38907;45.562;8.856;2023-12-29T13:20:44;9.60;99.90
51021;DHT22;38907;45.562;8.856;2023-12-29T13:25:46;9.50;99.90
51021;DHT22;38907;45.562;8.856;2023-12-29T13:30:49;9.60;99.90
51021;DHT22;38907;45.562;8.856;2023-12-29T13:35:54;9.50;99.90
51021;DHT22;38907;45.562;8.856;2023-12-29T13:41:03;9.60;99.90
51021;DHT22;38907;45.562;8.856;2023-12-29T13:46:06;9.50;99.90
51021;DHT22;38907;45.562;8.856;2023-12-29T13:51:11;9.60;99.90
51021;DHT22;38907;45.562;8.856;2023-12-29T13:56:13;9.50;99.90
51021;DHT22;38907;45.562;8.856;2023-12-29T14:01:16;9.40;99.90
51021;DHT22;38907;45.562;8.856;2023-12-29T14:06:28;9.50;99.90
51021;DHT22;38907;45.562;8.856;2023-12-29T14:11:31;9.50;99.90
51021;DHT22;38907;45.562;8.856;2023-12-29T14:16:38;9.60;99.90
51021;DHT22;38907;45.562;8.856;2023-12-29T14:21:42;9.60;99.90
51021;DHT22;38907;45.562;8.856;2023-12-29T14:26:54;9.60;99.90
51021;DHT22;38907;45.562;8.856;2023-12-29T14:31:57;9.70;99.90
51021;DHT22;38907;45.562;8.856;2023-12-29T14:37:01;9.60;99.90
51021;DHT22;38907;45.562;8.856;2023-12-29T14:42:04;9.60;99.90
51021;DHT22;38907;45.562;8.856;2023-12-29T14:47:06;9.50;99.90
51021;DHT22;38907;45.562;8.856;2023-12-29T14:52:09;9.40;99.90
51021;DHT22;38907;45.562;8.856;2023-12-29T14:57:11;9.60;99.90
51021;DHT22;38907;45.562;8.856;2023-12-29T15:02:13;9.60;99.90
51021;DHT22;38907;45.562;8.856;2023-12-29T15:07:16;9.60;99.90
51021;DHT22;38907;45.562;8.856;2023-12-29T15:12:18;9.30;99.90
51021;DHT22;38907;45.562;8.856;2023-12-29T15:17:20;9.30;99.90
51021;DHT22;38907;45.562;8.856;2023-12-29T15:22:23;9.50;99.90
51021;DHT22;38907;45.562;8.856;2023-12-29T15:27:26;9.60;99.90
51021;DHT22;38907;45.562;8.856;2023-12-29T15:32:28;9.40;99.90
51021;DHT22;38907;45.562;8.856;2023-12-29T15:37:31;9.30;99.90
51021;DHT22;38907;45.562;8.856;2023-12-29T15:42:33;9.40;99.90
51021;DHT22;38907;45.562;8.856;2023-12-29T15:47:35;9.30;99.90
51021;DHT22;38907;45.562;8.856;2023-12-29T15:52:38;9.30;99.90
51021;DHT22;38907;45.562;8.856;2023-12-29T15:57:40;9.30;99.90
51021;DHT22;38907;45.562;8.856;2023-12-29T16:02:42;9.30;99.90
51021;DHT22;38907;45.562;8.856;2023-12-29T16:07:45;9.30;99.90
51021;DHT22;38907;45.562;8.856;2023-12-29T16:12:47;9.20;99.90
51021;DHT22;38907;45.562;8.856;2023-12-29T16:17:48;9.10;99.90
51021;DHT22;38907;45.562;8.856;2023-12-29T16:22:52;9.20;99.90
51021;DHT22;38907;45.562;8.856;2023-12-29T16:27:54;9.20;99.90
51021;DHT22;38907;45.562;8.856;2023-12-29T16:32:56;9.20;99.90
51021;DHT22;38907;45.562;8.856;2023-12-29T16:37:59;9.20;99.90
51021;DHT22;38907;45.562;8.856;2023-12-29T16:43:01;9.20;99.90
51021;DHT22;38907;45.562;8.856;2023-12-29T16:48:03;9.20;99.90
51021;DHT22;38907;45.562;8.856;2023-12-29T16:53:07;9.20;99.90
51021;DHT22;38907;45.562;8.856;2023-12-29T16:58:08;9.10;99.90
51021;DHT22;38907;45.562;8.856;2023-12-29T17:03:11;9.20;99.90
51021;DHT22;38907;45.562;8.856;2023-12-29T17:08:15;9.10;99.90
51021;DHT22;38907;45.562;8.856;2023-12-29T17:13:17;9.10;99.90
51021;DHT22;38907;45.562;8.856;2023-12-29T17:18:18;9.20;99.90
51021;DHT22;38907;45.562;8.856;2023-12-29T17:23:22;9.20;99.90
51021;DHT22;38907;45.562;8.856;2023-12-29T17:28:23;9.10;99.90
51021;DHT22;38907;45.562;8.856;2023-12-29T17:33:25;9.20;99.90
51021;DHT22;38907;45.562;8.856;2023-12-29T17:38:28;9.20;99.90
51021;DHT22;38907;45.562;8.856;2023-12-29T17:43:30;9.10;99.90
51021;DHT22;38907;45.562;8.856;2023-12-29T17:48:32;9.10;99.90
51021;DHT22;38907;45.562;8.856;2023-12-29T17:53:36;9.10;99.90
51021;DHT22;38907;45.562;8.856;2023-12-29T17:58:37;9.10;99.90
51021;DHT22;38907;45.562;8.856;2023-12-29T18:03:40;9.10;99.90
51021;DHT22;38907;45.562;8.856;2023-12-29T18:08:43;9.00;99.90
51021;DHT22;38907;45.562;8.856;2023-12-29T18:13:45;9.10;99.90
51021;DHT22;38907;45.562;8.856;2023-12-29T18:18:47;9.00;99.90
51021;DHT22;38907;45.562;8.856;2023-12-29T18:23:50;9.10;99.90
51021;DHT22;38907;45.562;8.856;2023-12-29T18:28:52;8.90;99.90
51021;DHT22;38907;45.562;8.856;2023-12-29T18:33:53;8.90;99.90
51021;DHT22;38907;45.562;8.856;2023-12-29T18:38:58;9.00;99.90
51021;DHT22;38907;45.562;8.856;2023-12-29T18:44:00;9.00;99.90
51021;DHT22;38907;45.562;8.856;2023-12-29T18:49:02;9.00;99.90
51021;DHT22;38907;45.562;8.856;2023-12-29T18:54:08;9.10;99.90
51021;DHT22;38907;45.562;8.856;2023-12-29T18:59:11;9.20;99.90
51021;DHT22;38907;45.562;8.856;2023-12-29T19:04:14;9.00;99.90
51021;DHT22;38907;45.562;8.856;2023-12-29T19:09:17;8.80;99.90
51021;DHT22;38907;45.562;8.856;2023-12-29T19:14:19;9.00;99.90
51021;DHT22;38907;45.562;8.856;2023-12-29T19:19:21;9.00;99.90
51021;DHT22;38907;45.562;8.856;2023-12-29T19:24:25;9.00;99.90
51021;DHT22;38907;45.562;8.856;2023-12-29T19:29:27;8.80;99.90
51021;DHT22;38907;45.562;8.856;2023-12-29T19:34:29;8.80;99.90
51021;DHT22;38907;45.562;8.856;2023-12-29T19:39:32;8.80;99.90
51021;DHT22;38907;45.562;8.856;2023-12-29T19:44:34;8.90;99.90
51021;DHT22;38907;45.562;8.856;2023-12-29T19:49:37;8.80;99.90
51021;DHT22;38907;45.562;8.856;2023-12-29T19:54:40;8.80;99.90
51021;DHT22;38907;45.562;8.856;2023-12-29T19:59:42;8.80;99.90
51021;DHT22;38907;45.562;8.856;2023-12-29T20:04:46;8.60;99.90
51021;DHT22;38907;45.562;8.856;2023-12-29T20:09:49;8.50;99.90
51021;DHT22;38907;45.562;8.856;2023-12-29T20:14:51;8.70;99.90
51021;DHT22;38907;45.562;8.856;2023-12-29T20:19:55;8.80;99.90
51021;DHT22;38907;45.562;8.856;2023-12-29T20:24:58;8.70;99.90
51021;DHT22;38907;45.562;8.856;2023-12-29T20:30:00;8.80;99.90
51021;DHT22;38907;45.562;8.856;2023-12-29T20:35:03;8.80;99.90
51021;DHT22;38907;45.562;8.856;2023-12-29T20:40:07;8.70;99.90
51021;DHT22;38907;45.562;8.856;2023-12-29T20:45:09;8.90;99.90
51021;DHT22;38907;45.562;8.856;2023-12-29T20:50:11;8.90;99.90
51021;DHT22;38907;45.562;8.856;2023-12-29T20:55:15;8.80;99.90
51021;DHT22;38907;45.562;8.856;2023-12-29T21:00:17;9.00;99.90
51021;DHT22;38907;45.562;8.856;2023-12-29T21:05:19;9.00;99.90
51021;DHT22;38907;45.562;8.856;2023-12-29T21:10:22;8.90;99.90
51021;DHT22;38907;45.562;8.856;2023-12-29T21:15:24;8.80;99.90
51021;DHT22;38907;45.562;8.856;2023-12-29T21:20:26;9.00;99.90
51021;DHT22;38907;45.562;8.856;2023-12-29T21:25:29;8.90;99.90
51021;DHT22;38907;45.562;8.856;2023-12-29T21:30:33;8.70;99.90
51021;DHT22;38907;45.562;8.856;2023-12-29T21:35:35;8.80;99.90
51021;DHT22;38907;45.562;8.856;2023-12-29T21:40:38;8.90;99.90
51021;DHT22;38907;45.562;8.856;2023-12-29T21:45:40;9.00;99.90
51021;DHT22;38907;45.562;8.856;2023-12-29T21:50:42;8.90;99.90
51021;DHT22;38907;45.562;8.856;2023-12-29T21:55:46;9.10;99.90
51021;DHT22;38907;45.562;8.856;2023-12-29T22:00:48;8.90;99.90
51021;DHT22;38907;45.562;8.856;2023-12-29T22:05:50;8.90;99.90
51021;DHT22;38907;45.562;8.856;2023-12-29T22:10:53;8.70;99.90
51021;DHT22;38907;45.562;8.856;2023-12-29T22:15:55;8.90;99.90
51021;DHT22;38907;45.562;8.856;2023-12-29T22:20:57;8.80;99.90
51021;DHT22;38907;45.562;8.856;2023-12-29T22:26:01;8.80;99.90
51021;DHT22;38907;45.562;8.856;2023-12-29T22:31:03;8.60;99.90
51021;DHT22;38907;45.562;8.856;2023-12-29T22:36:09;8.80;99.90
51021;DHT22;38907;45.562;8.856;2023-12-29T22:41:14;8.70;99.90
51021;DHT22;38907;45.562;8.856;2023-12-29T22:46:17;8.70;99.90
51021;DHT22;38907;45.562;8.856;2023-12-29T22:51:19;8.70;99.90
51021;DHT22;38907;45.562;8.856;2023-12-29T22:56:23;8.50;99.90
51021;DHT22;38907;45.562;8.856;2023-12-29T23:01:25;8.60;99.90
51021;DHT22;38907;45.562;8.856;2023-12-29T23:06:28;8.70;99.90
51021;DHT22;38907;45.562;8.856;2023-12-29T23:11:32;8.70;99.90
51021;DHT22;38907;45.562;8.856;2023-12-29T23:16:34;8.80;99.90
51021;DHT22;38907;45.562;8.856;2023-12-29T23:21:37;8.70;99.90
51021;DHT22;38907;45.562;8.856;2023-12-29T23:26:41;8.80;99.90
51021;DHT22;38907;45.562;8.856;2023-12-29T23:31:45;8.80;99.90
51021;DHT22;38907;45.562;8.856;2023-12-29T23:36:47;8.70;99.90
51021;DHT22;38907;45.562;8.856;2023-12-29T23:41:50;8.90;99.90
51021;DHT22;38907;45.562;8.856;2023-12-29T23:46:52;8.70;99.90
51021;DHT22;38907;45.562;8.856;2023-12-29T23:51:54;8.80;99.90
51021;DHT22;38907;45.562;8.856;2023-12-29T23:56:58;8.90;99.90
